createdAt,value
2022-08-17T00:00:34.981Z,100393.31
2022-08-17T00:03:02.984Z,100392.28
2022-08-17T00:05:31.993Z,100397.31
2022-08-17T00:13:06.626Z,100394.47
2022-08-17T00:15:33.035Z,100402.81
2022-08-17T00:17:59.404Z,100400.84
2022-08-17T00:20:35.016Z,100403.78
2022-08-17T00:23:03.512Z,100399.66
2022-08-17T00:25:29.775Z,100390.50
2022-08-17T00:27:56.223Z,100393.88
2022-08-17T00:34:19.303Z,100393.19
2022-08-17T00:36:45.564Z,100384.41
2022-08-17T00:39:11.894Z,100395.78
2022-08-17T00:41:42.586Z,100395.66
2022-08-17T00:44:09.095Z,100393.06
2022-08-17T00:46:39.699Z,100394.66
2022-08-17T00:49:07.172Z,100393.28
2022-08-17T00:58:10.001Z,100397.44
2022-08-17T01:00:39.719Z,100394.00
2022-08-17T01:03:07.451Z,100391.50
2022-08-17T01:05:37.619Z,100388.97
2022-08-17T01:08:11.004Z,100382.78
2022-08-17T01:10:59.259Z,100380.84
2022-08-17T01:13:31.099Z,100394.25
2022-08-17T01:18:50.968Z,100390.56
2022-08-17T01:21:22.541Z,100383.28
2022-08-17T01:23:51.580Z,100385.91
2022-08-17T01:26:20.217Z,100381.41
2022-08-17T01:28:54.743Z,100386.44
2022-08-17T01:31:25.813Z,100384.75
2022-08-17T01:33:53.712Z,100388.56
2022-08-17T01:36:22.108Z,100390.94
2022-08-17T01:38:51.047Z,100388.44
2022-08-17T01:41:19.454Z,100390.25
2022-08-17T01:43:50.976Z,100380.66
2022-08-17T01:46:22.740Z,100384.06
2022-08-17T01:48:51.367Z,100383.09
2022-08-17T01:51:19.896Z,100393.81
2022-08-17T01:53:52.924Z,100393.56
2022-08-17T01:56:23.114Z,100401.75
2022-08-17T01:58:51.097Z,100399.25
2022-08-17T02:01:20.104Z,100399.50
2022-08-17T02:03:59.674Z,100395.75
2022-08-17T02:06:30.337Z,100389.56
2022-08-17T02:09:02.850Z,100392.19
2022-08-17T02:11:32.625Z,100391.97
2022-08-17T02:14:04.236Z,100399.25
2022-08-17T02:16:37.641Z,100394.63
2022-08-17T02:19:07.546Z,100386.31
2022-08-17T02:21:48.098Z,100391.72
2022-08-17T02:25:00.552Z,100389.16
2022-08-17T02:27:15.111Z,100393.94
2022-08-17T02:29:43.184Z,100392.56
2022-08-17T02:32:20.921Z,100384.94
2022-08-17T02:35:05.563Z,100388.06
2022-08-17T02:37:37.822Z,100401.03
2022-08-17T02:40:12.154Z,100402.56
2022-08-17T02:42:43.276Z,100387.44
2022-08-17T02:45:14.254Z,100381.56
2022-08-17T02:47:44.920Z,100377.09
2022-08-17T02:50:15.220Z,100383.31
2022-08-17T02:52:47.522Z,100384.03
2022-08-17T02:55:35.552Z,100383.34
2022-08-17T02:58:03.867Z,100377.28
2022-08-17T03:00:36.971Z,100372.94
2022-08-17T03:03:08.549Z,100366.78
2022-08-17T03:05:41.851Z,100355.84
2022-08-17T03:08:13.569Z,100358.63
2022-08-17T03:10:48.940Z,100350.22
2022-08-17T03:13:24.841Z,100352.16
2022-08-17T03:15:55.889Z,100355.84
2022-08-17T03:18:31.727Z,100356.78
2022-08-17T03:21:03.805Z,100355.28
2022-08-17T03:23:34.000Z,100345.72
2022-08-17T03:26:03.930Z,100357.38
2022-08-17T03:28:43.434Z,100360.31
2022-08-17T03:31:16.194Z,100361.84
2022-08-17T03:33:46.177Z,100361.44
2022-08-17T03:36:21.887Z,100374.38
2022-08-17T03:38:57.571Z,100375.78
2022-08-17T03:41:31.359Z,100374.38
2022-08-17T03:44:03.569Z,100375.78
2022-08-17T03:46:51.642Z,100376.47
2022-08-17T03:49:38.938Z,100371.28
2022-08-17T03:52:31.424Z,100381.25
2022-08-17T03:55:18.186Z,100379.16
2022-08-17T03:57:51.677Z,100375.47
2022-08-17T04:00:22.972Z,100376.06
2022-08-17T04:02:53.718Z,100381.94
2022-08-17T04:05:22.115Z,100376.75
2022-08-17T04:07:52.884Z,100378.84
2022-08-17T04:10:24.765Z,100377.44
2022-08-17T04:12:59.063Z,100369.75
2022-08-17T04:15:35.980Z,100370.16
2022-08-17T04:18:07.611Z,100376.75
2022-08-17T04:20:42.456Z,100376.03
2022-08-17T04:23:20.262Z,100370.16
2022-08-17T04:25:51.887Z,100369.16
2022-08-17T04:28:22.780Z,100368.75
2022-08-17T04:30:53.681Z,100370.88
2022-08-17T04:33:26.595Z,100368.06
2022-08-17T04:36:00.234Z,100376.34
2022-08-17T04:38:40.006Z,100372.41
2022-08-17T04:41:25.480Z,100379.97
2022-08-17T04:44:02.843Z,100388.97
2022-08-17T04:46:39.419Z,100390.09
2022-08-17T04:49:11.039Z,100398.38
2022-08-17T04:51:54.501Z,100396.28
2022-08-17T04:54:27.497Z,100393.88
2022-08-17T04:56:59.980Z,100392.34
2022-08-17T04:59:39.561Z,100397.97
2022-08-17T05:02:11.313Z,100389.69
2022-08-17T05:04:41.801Z,100395.44
2022-08-17T05:07:19.803Z,100397.25
2022-08-17T05:09:55.469Z,100394.56
2022-08-17T05:12:32.976Z,100394.28
2022-08-17T05:15:06.139Z,100405.09
2022-08-17T05:17:37.318Z,100403.44
2022-08-17T05:20:06.277Z,100403.44
2022-08-17T05:22:36.764Z,100400.91
2022-08-17T05:25:10.716Z,100409.59
2022-08-17T05:27:43.813Z,100396.84
2022-08-17T05:30:17.474Z,100402.28
2022-08-17T05:32:56.132Z,100405.53
2022-08-17T05:35:32.428Z,100397.94
2022-08-17T05:38:02.733Z,100395.13
2022-08-17T05:40:32.934Z,100393.44
2022-08-17T05:43:18.369Z,100390.78
2022-08-17T05:45:58.593Z,100390.91
2022-08-17T05:48:40.082Z,100384.94
2022-08-17T05:51:27.941Z,100382.56
2022-08-17T05:54:04.000Z,100371.00
2022-08-17T05:56:52.906Z,100376.47
2022-08-17T05:59:38.326Z,100377.16
2022-08-17T06:02:22.011Z,100373.94
2022-08-17T06:05:02.326Z,100370.75
2022-08-17T06:07:41.265Z,100367.97
2022-08-17T06:10:23.428Z,100364.28
2022-08-17T06:13:02.367Z,100372.78
2022-08-17T06:15:48.766Z,100362.03
2022-08-17T06:18:23.007Z,100367.94
2022-08-17T06:21:16.645Z,100365.34
2022-08-17T06:24:00.996Z,100359.97
2022-08-17T06:26:42.787Z,100364.09
2022-08-17T06:29:29.844Z,100357.56
2022-08-17T06:32:05.683Z,100357.28
2022-08-17T06:34:44.580Z,100355.38
2022-08-17T06:37:36.694Z,100362.03
2022-08-17T06:40:23.286Z,100354.66
2022-08-17T06:43:05.643Z,100359.59
2022-08-17T06:45:49.470Z,100367.53
2022-08-17T06:48:24.438Z,100362.09
2022-08-17T06:51:01.032Z,100364.66
2022-08-17T06:53:33.684Z,100359.69
2022-08-17T06:56:08.734Z,100364.81
2022-08-17T06:58:38.898Z,100365.25
2022-08-17T07:01:14.805Z,100361.03
2022-08-17T07:03:48.506Z,100360.94
2022-08-17T07:06:28.650Z,100364.59
2022-08-17T07:09:01.336Z,100359.66
2022-08-17T07:11:32.794Z,100357.97
2022-08-17T07:14:13.991Z,100362.84
2022-08-17T07:16:47.079Z,100368.66
2022-08-17T07:19:18.522Z,100366.63
2022-08-17T07:21:57.464Z,100360.44
2022-08-17T07:24:35.861Z,100364.28
2022-08-17T07:27:17.056Z,100361.47
2022-08-17T07:29:53.214Z,100359.47
2022-08-17T07:32:28.230Z,100370.56
2022-08-17T07:35:16.129Z,100367.53
2022-08-17T07:37:54.144Z,100372.44
2022-08-17T07:41:59.210Z,100367.84
2022-08-17T07:44:27.751Z,100366.56
2022-08-17T07:47:20.701Z,100370.25
2022-08-17T07:49:54.227Z,100374.25
2022-08-17T07:52:50.822Z,100371.00
2022-08-17T07:55:35.605Z,100372.88
2022-08-17T07:58:04.860Z,100378.25
2022-08-17T08:00:37.277Z,100378.97
2022-08-17T08:03:19.671Z,100381.31
2022-08-17T08:05:56.012Z,100377.75
2022-08-17T08:08:31.947Z,100377.91
2022-08-17T08:11:08.523Z,100401.72
2022-08-17T08:13:49.019Z,100403.19
2022-08-17T08:16:37.366Z,100414.31
2022-08-17T08:19:08.397Z,100424.59
2022-08-17T08:21:52.209Z,100429.66
2022-08-17T08:24:42.700Z,100448.81
2022-08-17T08:27:25.334Z,100457.66
2022-08-17T08:30:02.978Z,100439.22
2022-08-17T08:32:42.820Z,100416.06
2022-08-17T08:35:22.341Z,100419.28
2022-08-17T08:38:00.758Z,100436.75
2022-08-17T08:40:42.382Z,100450.09
2022-08-17T08:43:23.448Z,100443.13
2022-08-17T08:45:57.214Z,100420.50
2022-08-17T08:48:52.964Z,100425.94
2022-08-17T08:51:32.792Z,100441.09
2022-08-17T08:54:12.750Z,100459.50
2022-08-17T08:57:11.645Z,100449.47
2022-08-17T08:59:42.309Z,100426.31
2022-08-17T09:02:40.967Z,100419.59
2022-08-17T09:05:21.854Z,100431.78
2022-08-17T09:07:57.340Z,100442.84
2022-08-17T09:10:30.944Z,100432.25
2022-08-17T09:13:16.159Z,100422.09
2022-08-17T09:15:51.528Z,100407.84
2022-08-17T09:19:03.101Z,100410.22
2022-08-17T09:21:23.997Z,100410.34
2022-08-17T09:24:01.353Z,100412.50
2022-08-17T09:26:41.256Z,100417.53
2022-08-17T09:29:24.368Z,100415.59
2022-08-17T09:31:56.222Z,100409.56
2022-08-17T09:34:37.717Z,100416.19
2022-08-17T09:37:20.930Z,100414.19
2022-08-17T09:39:54.475Z,100413.84
2022-08-17T09:42:35.043Z,100412.34
2022-08-17T09:45:17.796Z,100412.66
2022-08-17T09:48:04.577Z,100416.41
2022-08-17T09:51:04.034Z,100409.25
2022-08-17T09:53:35.690Z,100413.00
2022-08-17T09:56:45.524Z,100419.78
2022-08-17T09:59:37.164Z,100416.06
2022-08-17T10:02:25.231Z,100425.97
2022-08-17T10:05:03.771Z,100425.19
2022-08-17T10:07:46.543Z,100421.47
2022-08-17T10:10:27.258Z,100420.41
2022-08-17T10:13:15.085Z,100420.19
2022-08-17T10:15:54.389Z,100412.00
2022-08-17T10:18:42.360Z,100403.09
2022-08-17T10:21:30.794Z,100406.69
2022-08-17T10:24:25.053Z,100398.25
2022-08-17T10:26:56.662Z,100393.88
2022-08-17T10:29:48.423Z,100387.09
2022-08-17T10:32:24.848Z,100394.75
2022-08-17T10:35:25.691Z,100381.34
2022-08-17T10:38:24.735Z,100385.88
2022-08-17T10:41:01.681Z,100380.22
2022-08-17T10:43:44.773Z,100389.06
2022-08-17T10:46:48.445Z,100382.84
2022-08-17T10:49:40.888Z,100386.41
2022-08-17T10:52:52.708Z,100380.41
2022-08-17T10:55:22.778Z,100388.78
2022-08-17T10:57:54.835Z,100385.53
2022-08-17T11:00:57.332Z,100383.84
2022-08-17T11:03:34.844Z,100372.00
2022-08-17T11:06:12.733Z,100373.28
2022-08-17T11:09:17.790Z,100378.41
2022-08-17T11:11:54.705Z,100382.28
2022-08-17T11:14:38.182Z,100387.66
2022-08-17T11:17:54.950Z,100388.06
2022-08-17T11:20:38.862Z,100391.16
2022-08-17T11:23:21.206Z,100384.25
2022-08-17T11:25:53.674Z,100385.38
2022-08-17T11:28:34.546Z,100385.28
2022-08-17T11:31:10.185Z,100385.28
2022-08-17T11:34:05.739Z,100387.28
2022-08-17T11:36:52.373Z,100386.31
2022-08-17T11:39:33.882Z,100384.78
2022-08-17T11:42:07.069Z,100386.75
2022-08-17T11:44:45.985Z,100385.16
2022-08-17T11:47:40.341Z,100385.09
2022-08-17T11:50:47.616Z,100384.84
2022-08-17T11:54:03.735Z,100377.78
2022-08-17T11:56:45.951Z,100381.94
2022-08-17T12:00:01.115Z,100382.94
2022-08-17T12:02:50.332Z,100393.69
2022-08-17T12:05:35.339Z,100387.81
2022-08-17T12:08:18.466Z,100396.69
2022-08-17T12:11:01.901Z,100391.63
2022-08-17T12:13:39.368Z,100397.44
2022-08-17T12:16:12.790Z,100390.06
2022-08-17T12:18:52.649Z,100388.97
2022-08-17T12:21:48.106Z,100386.22
2022-08-17T12:24:29.268Z,100376.06
2022-08-17T12:27:01.183Z,100388.31
2022-08-17T12:29:38.827Z,100387.81
2022-08-17T12:32:17.497Z,100375.41
2022-08-17T12:34:56.678Z,100389.72
2022-08-17T12:37:35.173Z,100388.31
2022-08-17T12:40:07.182Z,100390.38
2022-08-17T12:42:41.674Z,100387.34
2022-08-17T12:45:23.457Z,100387.91
2022-08-17T12:48:02.776Z,100383.88
2022-08-17T12:50:34.919Z,100384.63
2022-08-17T12:53:10.236Z,100379.38
2022-08-17T12:55:41.590Z,100382.00
2022-08-17T12:58:16.708Z,100377.81
2022-08-17T13:00:50.191Z,100371.59
2022-08-17T13:03:23.190Z,100372.56
2022-08-17T13:05:59.918Z,100375.50
2022-08-17T13:08:33.795Z,100373.09
2022-08-17T13:11:06.601Z,100378.53
2022-08-17T13:13:37.779Z,100385.97
2022-08-17T13:16:09.577Z,100386.88
2022-08-17T13:18:42.704Z,100380.09
2022-08-17T13:21:25.049Z,100383.47
2022-08-17T13:24:07.114Z,100378.81
2022-08-17T13:26:44.192Z,100390.22
2022-08-17T13:29:24.454Z,100397.75
2022-08-17T13:32:05.127Z,100402.66
2022-08-17T13:35:05.266Z,100392.16
2022-08-17T13:37:35.326Z,100403.22
2022-08-17T13:40:21.092Z,100399.22
2022-08-17T13:42:54.311Z,100394.16
2022-08-17T13:45:46.310Z,100397.72
2022-08-17T13:48:34.091Z,100390.81
2022-08-17T13:51:16.840Z,100388.13
2022-08-17T13:54:08.559Z,100375.31
2022-08-17T13:56:53.936Z,100374.56
2022-08-17T13:59:54.909Z,100369.91
2022-08-17T14:02:28.463Z,100368.72
2022-08-17T14:05:00.618Z,100370.03
2022-08-17T14:07:51.017Z,100369.63
2022-08-17T14:10:37.591Z,100380.34
2022-08-17T14:13:07.097Z,100377.56
2022-08-17T15:01:37.401Z,100381.25
2022-08-17T15:04:05.762Z,100368.09
2022-08-17T15:06:33.441Z,100379.75
2022-08-17T15:09:01.426Z,100376.47
2022-08-17T15:11:29.324Z,100368.09
2022-08-17T15:13:56.920Z,100366.50
2022-08-17T15:16:24.535Z,100364.84
2022-08-17T15:18:53.540Z,100364.66
2022-08-17T15:21:21.493Z,100364.09
2022-08-17T15:23:49.452Z,100368.09
2022-08-17T15:26:17.364Z,100360.53
2022-08-17T15:28:44.978Z,100371.56
2022-08-17T15:31:32.391Z,100371.53
2022-08-17T15:34:01.620Z,100356.75
2022-08-17T15:36:29.621Z,100362.97
2022-08-17T15:38:58.826Z,100349.16
2022-08-17T15:41:28.098Z,100351.28
2022-08-17T15:43:56.256Z,100363.50
2022-08-17T15:46:25.831Z,100371.25
2022-08-17T15:48:58.153Z,100378.41
2022-08-17T15:51:28.851Z,100385.06
2022-08-17T15:53:59.119Z,100392.72
2022-08-17T15:56:27.529Z,100391.06
2022-08-17T15:58:55.843Z,100394.75
2022-08-17T16:02:15.385Z,100393.03
2022-08-17T16:04:26.939Z,100388.84
2022-08-17T16:07:00.371Z,100384.00
2022-08-17T16:09:28.103Z,100379.50
2022-08-17T16:11:56.478Z,100380.88
2022-08-17T16:14:24.479Z,100380.91
2022-08-17T16:16:59.100Z,100369.56
2022-08-17T16:19:26.876Z,100370.78
2022-08-17T16:21:54.525Z,100370.50
2022-08-17T16:24:23.518Z,100375.84
2022-08-17T16:26:51.184Z,100378.84
2022-08-17T16:29:18.859Z,100381.31
2022-08-17T16:31:46.633Z,100375.72
2022-08-17T16:34:17.799Z,100371.31
2022-08-17T16:36:55.456Z,100377.81
2022-08-17T16:39:26.271Z,100371.56
2022-08-17T16:41:54.020Z,100367.84
2022-08-17T16:44:22.623Z,100362.63
2022-08-17T16:46:51.104Z,100362.03
2022-08-17T16:49:33.632Z,100371.22
2022-08-17T16:52:04.858Z,100375.44
2022-08-17T16:54:35.291Z,100376.41
2022-08-17T16:57:04.861Z,100372.81
2022-08-17T16:59:40.298Z,100388.22
2022-08-17T17:02:11.176Z,100379.75
2022-08-17T17:04:43.322Z,100376.41
2022-08-17T17:07:21.436Z,100375.66
2022-08-17T17:09:52.610Z,100387.06
2022-08-17T17:12:32.267Z,100381.25
2022-08-17T17:15:09.463Z,100397.84
2022-08-17T17:17:38.496Z,100404.56
2022-08-17T17:20:10.215Z,100410.06
2022-08-17T17:22:45.698Z,100413.94
2022-08-17T17:25:19.869Z,100420.13
2022-08-17T17:27:51.428Z,100427.44
2022-08-17T17:30:24.049Z,100430.72
2022-08-17T17:32:54.735Z,100436.22
2022-08-17T17:35:25.962Z,100446.44
2022-08-17T17:37:54.088Z,100456.47
2022-08-17T17:40:24.736Z,100469.09
2022-08-17T17:42:55.020Z,100461.44
2022-08-17T17:45:25.874Z,100461.34
2022-08-17T17:47:54.352Z,100467.84
2022-08-17T17:50:30.832Z,100476.38
2022-08-17T17:53:02.955Z,100474.41
2022-08-17T17:55:38.398Z,100472.66
2022-08-17T17:58:28.087Z,100467.22
2022-08-17T18:01:04.673Z,100477.91
2022-08-17T18:03:50.555Z,100462.59
2022-08-17T18:06:30.393Z,100468.38
2022-08-17T18:09:06.315Z,100460.38
2022-08-17T18:11:51.367Z,100461.63
2022-08-17T18:14:27.008Z,100459.13
2022-08-17T18:16:57.193Z,100459.44
2022-08-17T18:19:27.207Z,100450.63
2022-08-17T18:21:57.972Z,100463.03
2022-08-17T18:24:33.828Z,100463.88
2022-08-17T18:27:08.614Z,100469.44
2022-08-17T18:29:42.612Z,100465.38
2022-08-17T18:32:25.129Z,100479.84
2022-08-17T18:34:54.742Z,100474.69
2022-08-17T18:37:36.021Z,100481.31
2022-08-17T18:40:35.415Z,100482.03
2022-08-17T18:43:11.414Z,100493.03
2022-08-17T18:45:43.119Z,100485.25
2022-08-17T18:48:24.282Z,100487.09
2022-08-17T18:50:54.445Z,100488.66
2022-08-17T18:53:34.211Z,100489.69
2022-08-17T18:56:28.184Z,100481.91
2022-08-17T18:59:05.092Z,100484.47
2022-08-17T19:01:53.458Z,100488.94
2022-08-17T19:04:37.129Z,100493.19
2022-08-17T19:07:12.046Z,100487.84
2022-08-17T19:09:43.228Z,100490.94
2022-08-17T19:12:18.125Z,100490.25
2022-08-17T19:14:47.458Z,100496.44
2022-08-17T19:17:20.891Z,100492.09
2022-08-17T19:19:53.199Z,100498.09
2022-08-17T19:22:28.407Z,100498.38
2022-08-17T19:25:03.708Z,100503.31
2022-08-17T19:27:41.784Z,100503.00
2022-08-17T19:30:16.120Z,100503.56
2022-08-17T19:32:44.100Z,100505.25
2022-08-17T19:35:17.318Z,100513.44
2022-08-17T19:37:56.383Z,100519.63
2022-08-17T19:40:51.886Z,100516.81
2022-08-17T19:43:23.932Z,100513.44
2022-08-17T19:45:59.299Z,100519.91
2022-08-17T19:48:40.159Z,100523.13
2022-08-17T19:51:11.360Z,100522.44
2022-08-17T19:54:04.247Z,100531.09
2022-08-17T19:56:36.111Z,100531.84
2022-08-17T19:59:08.672Z,100532.22
2022-08-17T20:01:44.175Z,100539.38
2022-08-17T20:04:15.689Z,100542.91
2022-08-17T20:06:45.142Z,100540.81
2022-08-17T20:09:19.085Z,100539.41
2022-08-17T20:11:49.751Z,100545.03
2022-08-17T20:14:20.806Z,100547.91
2022-08-17T20:16:49.956Z,100550.72
2022-08-17T20:19:31.095Z,100550.19
2022-08-17T20:22:01.845Z,100553.63
2022-08-17T20:24:35.000Z,100555.00
2022-08-17T20:27:14.139Z,100554.03
2022-08-17T20:30:04.870Z,100552.47
2022-08-17T20:32:35.773Z,100540.13
2022-08-17T20:35:22.545Z,100549.91
2022-08-17T20:37:58.515Z,100554.38
2022-08-17T20:40:29.996Z,100554.22
2022-08-17T20:42:58.527Z,100554.81
2022-08-17T20:46:08.815Z,100557.84
2022-08-17T20:48:41.129Z,100551.63
2022-08-17T20:51:31.391Z,100545.88
2022-08-17T20:54:30.396Z,100542.50
2022-08-17T20:57:00.904Z,100547.63
2022-08-17T21:00:04.885Z,100542.56
2022-08-17T21:02:32.837Z,100554.13
2022-08-17T21:05:30.198Z,100552.31
2022-08-17T21:07:59.931Z,100551.19
2022-08-17T21:10:36.225Z,100553.59
2022-08-17T21:13:36.275Z,100548.16
2022-08-17T21:16:09.898Z,100546.53
2022-08-17T21:18:42.712Z,100558.88
2022-08-17T21:21:20.939Z,100551.78
2022-08-17T21:24:02.224Z,100565.94
2022-08-17T21:26:34.158Z,100570.38
2022-08-17T21:29:29.918Z,100559.56
2022-08-17T21:32:19.219Z,100570.06
2022-08-17T21:35:38.994Z,100564.03
2022-08-17T21:38:14.355Z,100572.19
2022-08-17T21:40:46.084Z,100563.69
2022-08-17T21:43:23.501Z,100557.38
2022-08-17T21:46:05.036Z,100563.19
2022-08-17T21:48:42.405Z,100565.31
2022-08-17T21:51:12.780Z,100562.06
2022-08-17T21:53:47.296Z,100561.41
2022-08-17T21:56:22.837Z,100567.72
2022-08-17T21:58:55.543Z,100565.25
2022-08-17T22:01:25.188Z,100558.88
2022-08-17T22:04:05.376Z,100561.28
2022-08-17T22:06:38.089Z,100556.13
2022-08-17T22:09:14.859Z,100562.75
2022-08-17T22:12:00.476Z,100558.50
2022-08-17T22:14:52.554Z,100553.47
2022-08-17T22:17:22.353Z,100555.44
2022-08-17T22:19:52.867Z,100553.56
2022-08-17T22:22:31.316Z,100557.63
2022-08-17T22:25:04.527Z,100559.06
2022-08-17T22:27:49.072Z,100564.00
2022-08-17T22:30:32.828Z,100568.78
2022-08-17T22:33:01.815Z,100575.88
2022-08-17T22:35:38.608Z,100574.38
2022-08-17T22:38:31.968Z,100577.75
2022-08-17T22:41:27.554Z,100574.13
2022-08-17T22:43:57.330Z,100564.28
2022-08-17T22:46:25.515Z,100561.03
2022-08-17T22:48:57.605Z,100561.84
2022-08-17T22:51:29.156Z,100576.78
2022-08-17T22:54:16.664Z,100579.16
2022-08-17T22:57:09.699Z,100578.13
2022-08-17T22:59:48.191Z,100579.13
2022-08-17T23:02:20.491Z,100570.69
2022-08-17T23:04:51.233Z,100578.56
2022-08-17T23:07:19.218Z,100584.78
2022-08-17T23:09:46.827Z,100589.78
2022-08-17T23:12:27.576Z,100579.38
2022-08-17T23:15:01.491Z,100583.88
2022-08-17T23:17:33.938Z,100571.03
2022-08-17T23:20:05.395Z,100571.59
2022-08-17T23:22:33.504Z,100574.41
2022-08-17T23:25:01.168Z,100580.03
2022-08-17T23:27:30.218Z,100576.88
2022-08-17T23:29:57.848Z,100579.91
2022-08-17T23:32:25.953Z,100594.31
2022-08-17T23:34:53.586Z,100590.75
2022-08-17T23:37:21.343Z,100591.59
2022-08-17T23:39:48.985Z,100590.38
2022-08-17T23:42:21.755Z,100598.66
2022-08-17T23:44:50.731Z,100603.72
2022-08-17T23:47:18.434Z,100596.44
2022-08-17T23:49:46.027Z,100589.16
2022-08-17T23:52:16.538Z,100594.13
2022-08-17T23:54:48.394Z,100604.53
2022-08-17T23:57:17.294Z,100608.19
2022-08-17T23:59:45.619Z,100609.59
